Time;durP1;ratioP1;P1;durP2;ratioP2;P2;SDS_P1;SDS_P2;PMS_P1;PMS_P2;Temp;Humidity;BMP_temperature;BMP_pressure;BME280_temperature;BME280_humidity;BME280_pressure;Samples;Min_cycle;Max_cycle;Signal;HPM_P1;HPM_P2
2021/12/16 00:05:41;;;;;;;68.25;39.45;;;;;;;;;;5025523;28;20116;-78
2021/12/16 00:08:17;;;;;;;59.40;35.20;;;;;;;;;;5057151;28;20090;-79
2021/12/16 00:10:54;;;;;;;57.45;33.05;;;;;;;;;;5057410;28;20031;-80
2021/12/16 00:34:57;;;;;;;50.10;29.38;;;;;;;;;;5056339;28;20101;-81
2021/12/16 00:37:22;;;;;;;61.38;34.85;;;;;;;;;;5039246;28;20021;-80
2021/12/16 00:39:48;;;;;;;58.08;33.60;;;;;;;;;;5038744;28;20108;-80
2021/12/16 00:42:45;;;;;;;58.88;34.80;;;;;;;;;;5038570;28;20028;-80
2021/12/16 00:47:29;;;;;;;78.53;48.20;;;;;;;;;;5056281;28;20082;-80
2021/12/16 00:50:05;;;;;;;75.15;42.85;;;;;;;;;;5038220;28;20029;-80
2021/12/16 00:57:42;;;;;;;91.03;49.50;;;;;;;;;;5056208;28;20407;-81
2021/12/16 01:00:11;;;;;;;95.68;55.55;;;;;;;;;;5038072;28;20020;-80
2021/12/16 01:03:04;;;;;;;92.70;56.33;;;;;;;;;;5037445;28;20031;-80
2021/12/16 01:35:38;;;;;;;127.70;75.07;;;;;;;;;;5035861;28;20039;-80
2021/12/16 01:41:30;;;;;;;37.88;22.00;;;;;;;;;;5035643;28;20043;-81
2021/12/16 01:51:31;;;;;;;41.90;26.25;;;;;;;;;;5034895;28;20095;-80
2021/12/16 01:57:12;;;;;;;40.55;24.45;;;;;;;;;;5034758;28;20409;-80
2021/12/16 01:59:36;;;;;;;39.03;21.98;;;;;;;;;;5034331;28;20053;-79
2021/12/16 02:02:12;;;;;;;;;;;;;;;;;;5033745;28;20057;-80
2021/12/16 02:04:53;;;;;;;38.45;22.70;;;;;;;;;;5033626;28;19909;-80
2021/12/16 02:07:43;;;;;;;42.45;25.55;;;;;;;;;;5017175;28;20024;-79
2021/12/16 02:10:07;;;;;;;49.67;28.20;;;;;;;;;;5034463;28;20024;-80
2021/12/16 02:36:46;;;;;;;43.05;25.80;;;;;;;;;;5034955;28;20025;-80
2021/12/16 02:39:12;;;;;;;38.75;23.23;;;;;;;;;;5034176;28;20071;-81
2021/12/16 02:41:40;;;;;;;37.38;22.98;;;;;;;;;;5035461;28;20431;-78
2021/12/16 02:44:14;;;;;;;42.63;24.52;;;;;;;;;;5034658;28;20399;-78
2021/12/16 02:49:25;;;;;;;37.83;21.95;;;;;;;;;;5034773;28;20747;-78
2021/12/16 02:51:51;;;;;;;43.47;26.10;;;;;;;;;;5016710;28;20017;-78
2021/12/16 02:54:17;;;;;;;46.42;27.58;;;;;;;;;;5034341;28;20490;-78
2021/12/16 02:57:01;;;;;;;40.30;22.58;;;;;;;;;;5016785;28;20107;-79
2021/12/16 02:59:29;;;;;;;43.22;24.73;;;;;;;;;;5035101;28;20038;-79
2021/12/16 03:01:56;;;;;;;37.20;21.80;;;;;;;;;;5016819;28;20116;-78
2021/12/16 03:04:23;;;;;;;40.63;21.08;;;;;;;;;;5016605;28;20099;-78
2021/12/16 03:06:51;;;;;;;36.05;21.83;;;;;;;;;;5034156;28;20024;-77
2021/12/16 03:09:18;;;;;;;60.47;36.38;;;;;;;;;;5034398;28;20453;-79
2021/12/16 03:12:04;;;;;;;49.70;28.85;;;;;;;;;;5034557;28;20078;-79
2021/12/16 03:14:37;;;;;;;40.53;24.20;;;;;;;;;;5033826;28;20124;-78
2021/12/16 03:19:44;;;;;;;40.15;24.20;;;;;;;;;;5034595;28;20125;-78
2021/12/16 03:22:19;;;;;;;37.60;21.83;;;;;;;;;;5032664;28;20029;-78
2021/12/16 03:38:17;;;;;;;36.35;20.75;;;;;;;;;;5038247;28;20031;-78
2021/12/16 03:40:42;;;;;;;37.83;20.92;;;;;;;;;;5019936;28;20380;-78
2021/12/16 03:43:11;;;;;;;39.65;22.35;;;;;;;;;;5037171;28;20100;-78
2021/12/16 03:48:23;;;;;;;35.03;19.20;;;;;;;;;;5037499;28;20098;-78
2021/12/16 03:50:49;;;;;;;42.53;24.60;;;;;;;;;;5019489;28;20935;-79
2021/12/16 03:53:16;;;;;;;32.83;18.80;;;;;;;;;;5019646;28;20112;-79
2021/12/16 03:55:42;;;;;;;38.03;22.20;;;;;;;;;;5035851;28;20020;-77
2021/12/16 03:58:08;;;;;;;35.58;20.65;;;;;;;;;;5034215;28;20048;-78
2021/12/16 04:00:36;;;;;;;37.33;22.52;;;;;;;;;;5072811;28;20024;-78
2021/12/16 04:03:02;;;;;;;40.22;23.05;;;;;;;;;;5055462;28;20024;-78
2021/12/16 04:05:27;;;;;;;36.90;22.88;;;;;;;;;;5056318;28;20024;-78
2021/12/16 04:07:53;;;;;;;40.53;23.15;;;;;;;;;;5072768;28;20409;-78
2021/12/16 04:10:21;;;;;;;39.08;23.77;;;;;;;;;;5057358;28;20027;-77
2021/12/16 04:12:48;;;;;;;36.85;23.30;;;;;;;;;;5057522;28;20423;-78
2021/12/16 04:15:14;;;;;;;37.00;22.58;;;;;;;;;;5057327;28;20025;-77
2021/12/16 04:17:39;;;;;;;33.33;19.70;;;;;;;;;;5055120;28;20036;-78
2021/12/16 04:20:07;;;;;;;37.03;22.92;;;;;;;;;;5057096;28;20028;-77
2021/12/16 04:22:36;;;;;;;36.38;21.77;;;;;;;;;;5072685;28;20063;-79
2021/12/16 04:25:04;;;;;;;31.60;19.30;;;;;;;;;;5072312;28;20051;-78
2021/12/16 04:27:30;;;;;;;27.23;16.63;;;;;;;;;;5072528;28;20532;-79
2021/12/16 04:29:55;;;;;;;35.15;21.23;;;;;;;;;;5055665;28;20111;-77
2021/12/16 04:32:21;;;;;;;32.05;19.67;;;;;;;;;;5056582;28;20044;-77
2021/12/16 04:34:46;;;;;;;34.22;20.20;;;;;;;;;;5055246;28;20147;-78
2021/12/16 04:37:12;;;;;;;27.38;16.92;;;;;;;;;;5054491;28;20031;-78
2021/12/16 04:39:38;;;;;;;29.63;16.95;;;;;;;;;;5055105;28;20127;-78
2021/12/16 04:42:04;;;;;;;32.80;20.52;;;;;;;;;;5055338;28;20055;-78
2021/12/16 04:44:30;;;;;;;35.80;24.27;;;;;;;;;;5055277;28;20029;-78
2021/12/16 04:46:57;;;;;;;65.30;40.83;;;;;;;;;;5054636;28;20050;-78
2021/12/16 04:49:23;;;;;;;72.82;45.30;;;;;;;;;;5072048;28;20020;-79
2021/12/16 04:51:50;;;;;;;35.70;21.83;;;;;;;;;;5054508;28;20024;-78
2021/12/16 04:54:18;;;;;;;31.80;20.00;;;;;;;;;;5056524;28;20036;-79
2021/12/16 04:56:44;;;;;;;49.60;28.67;;;;;;;;;;5057079;28;20508;-79
2021/12/16 04:59:12;;;;;;;67.05;38.67;;;;;;;;;;5056042;28;20056;-78
2021/12/16 05:01:38;;;;;;;45.15;25.80;;;;;;;;;;5055052;28;20746;-78
2021/12/16 05:04:04;;;;;;;49.47;30.42;;;;;;;;;;5054736;28;20020;-79
2021/12/16 05:06:29;;;;;;;43.58;24.13;;;;;;;;;;5055691;28;20364;-79
2021/12/16 05:08:55;;;;;;;48.15;27.30;;;;;;;;;;5057087;28;20027;-79
2021/12/16 05:11:20;;;;;;;47.30;27.17;;;;;;;;;;5071752;28;20127;-79
2021/12/16 05:13:47;;;;;;;56.95;32.90;;;;;;;;;;5036700;28;20071;-79
2021/12/16 05:16:13;;;;;;;32.17;18.95;;;;;;;;;;5034081;28;20021;-79
2021/12/16 05:18:39;;;;;;;37.20;23.42;;;;;;;;;;5031994;28;20028;-78
2021/12/16 05:26:49;;;;;;;31.63;19.63;;;;;;;;;;5035786;28;20036;-78
2021/12/16 05:29:15;;;;;;;37.70;22.48;;;;;;;;;;5036916;28;20368;-78
2021/12/16 05:31:40;;;;;;;51.63;31.77;;;;;;;;;;5036002;28;20033;-79
2021/12/16 05:34:06;;;;;;;30.30;19.30;;;;;;;;;;5033885;28;20060;-79
2021/12/16 05:36:32;;;;;;;50.50;30.80;;;;;;;;;;5034281;28;20136;-79
2021/12/16 05:38:57;;;;;;;58.63;34.85;;;;;;;;;;5034620;28;20124;-79
2021/12/16 05:41:23;;;;;;;44.78;28.08;;;;;;;;;;5033876;28;20024;-79
2021/12/16 05:43:49;;;;;;;48.55;29.15;;;;;;;;;;5032815;28;20025;-80
2021/12/16 05:46:16;;;;;;;17.48;11.63;;;;;;;;;;5033143;28;20444;-79
2021/12/16 05:48:42;;;;;;;32.83;20.58;;;;;;;;;;5032666;28;20460;-78
2021/12/16 05:51:13;;;;;;;37.30;22.40;;;;;;;;;;5033206;28;20021;-78
2021/12/16 05:53:40;;;;;;;41.35;25.90;;;;;;;;;;5033996;28;20086;-80
2021/12/16 05:56:06;;;;;;;34.10;22.73;;;;;;;;;;5034535;28;20471;-79
2021/12/16 05:58:31;;;;;;;31.50;19.67;;;;;;;;;;5036827;28;20048;-80
2021/12/16 06:01:19;;;;;;;27.27;18.35;;;;;;;;;;5054946;28;20031;-80
2021/12/16 06:03:44;;;;;;;28.45;17.42;;;;;;;;;;5055302;28;20024;-79
2021/12/16 06:06:10;;;;;;;23.95;15.57;;;;;;;;;;5037050;28;20105;-80
2021/12/16 06:08:35;;;;;;;24.83;16.80;;;;;;;;;;5036453;28;20016;-78
2021/12/16 06:11:23;;;;;;;32.20;22.25;;;;;;;;;;5037084;28;20483;-78
2021/12/16 06:13:59;;;;;;;29.13;19.42;;;;;;;;;;5036892;28;20119;-78
2021/12/16 06:27:23;;;;;;;22.38;13.75;;;;;;;;;;5055216;28;20027;-77
2021/12/16 06:29:49;;;;;;;36.90;23.80;;;;;;;;;;5036671;28;20029;-78
2021/12/16 06:32:15;;;;;;;26.83;17.35;;;;;;;;;;5054757;28;20035;-78
2021/12/16 06:34:40;;;;;;;26.38;20.33;;;;;;;;;;5054680;28;20381;-78
2021/12/16 06:37:06;;;;;;;35.83;26.60;;;;;;;;;;5036618;28;20371;-78
2021/12/16 06:39:32;;;;;;;35.58;21.58;;;;;;;;;;5054845;28;20117;-79
2021/12/16 06:41:58;;;;;;;75.93;39.00;;;;;;;;;;5055327;28;20071;-79
2021/12/16 06:44:29;;;;;;;60.10;34.67;;;;;;;;;;5036488;28;20028;-78
2021/12/16 06:47:01;;;;;;;32.65;22.17;;;;;;;;;;5037115;28;20027;-79
2021/12/16 06:49:27;;;;;;;29.25;18.05;;;;;;;;;;5036971;28;20028;-78
2021/12/16 06:51:55;;;;;;;58.92;34.95;;;;;;;;;;5055167;28;20471;-78
2021/12/16 06:54:28;;;;;;;46.30;32.47;;;;;;;;;;5036688;28;20502;-78
2021/12/16 06:59:42;;;;;;;47.45;32.45;;;;;;;;;;5034249;28;20511;-79
2021/12/16 07:02:17;;;;;;;55.25;36.30;;;;;;;;;;5037438;28;20028;-79
2021/12/16 07:04:43;;;;;;;31.33;19.58;;;;;;;;;;5037242;28;20495;-79
2021/12/16 07:07:10;;;;;;;30.02;19.73;;;;;;;;;;5020571;28;20067;-79
2021/12/16 07:09:35;;;;;;;64.30;35.85;;;;;;;;;;5039918;28;20032;-78
2021/12/16 07:12:01;;;;;;;76.43;44.72;;;;;;;;;;5038493;28;20017;-78
2021/12/16 07:14:36;;;;;;;67.78;42.38;;;;;;;;;;5038685;28;20036;-79
2021/12/16 07:17:03;;;;;;;47.97;32.05;;;;;;;;;;5019553;28;20541;-77
2021/12/16 07:19:28;;;;;;;36.15;22.80;;;;;;;;;;5019302;28;20485;-78
2021/12/16 07:21:54;;;;;;;24.33;16.80;;;;;;;;;;5019275;28;20108;-78
2021/12/16 07:24:19;;;;;;;42.10;26.23;;;;;;;;;;5037864;28;20025;-78
2021/12/16 07:26:45;;;;;;;52.78;28.38;;;;;;;;;;5014834;28;20037;-77
2021/12/16 07:29:11;;;;;;;45.85;26.77;;;;;;;;;;5023058;28;20021;-77
2021/12/16 07:31:37;;;;;;;34.33;19.63;;;;;;;;;;5037889;28;20844;-78
2021/12/16 07:34:03;;;;;;;53.53;29.75;;;;;;;;;;5038433;28;20515;-79
2021/12/16 07:36:30;;;;;;;47.92;25.88;;;;;;;;;;5020726;28;20021;-78
2021/12/16 07:38:55;;;;;;;34.47;21.83;;;;;;;;;;5020581;28;20368;-81
2021/12/16 07:41:25;;;;;;;34.80;19.52;;;;;;;;;;5019756;28;20024;-80
2021/12/16 07:44:34;;;;;;;36.45;20.10;;;;;;;;;;5037550;28;20090;-78
2021/12/16 07:46:46;;;;;;;32.47;19.67;;;;;;;;;;5023750;28;20029;-80
2021/12/16 07:49:13;;;;;;;21.25;12.73;;;;;;;;;;5038167;28;20024;-82
2021/12/16 07:51:39;;;;;;;29.98;15.32;;;;;;;;;;5019709;28;20112;-81
2021/12/16 07:54:04;;;;;;;47.85;22.50;;;;;;;;;;5019443;28;20163;-79
2021/12/16 07:56:30;;;;;;;43.55;22.27;;;;;;;;;;5019668;28;20056;-80
2021/12/16 07:58:55;;;;;;;45.53;24.50;;;;;;;;;;5031710;28;20403;-79
2021/12/16 08:01:21;;;;;;;31.05;15.25;;;;;;;;;;5037336;28;20076;-79
2021/12/16 08:03:47;;;;;;;24.83;14.93;;;;;;;;;;5036780;28;20028;-78
2021/12/16 08:06:18;;;;;;;27.48;17.08;;;;;;;;;;5037662;28;20025;-76
2021/12/16 08:08:43;;;;;;;23.88;13.40;;;;;;;;;;5014606;28;20025;-80
2021/12/16 08:11:09;;;;;;;29.65;16.45;;;;;;;;;;5018261;28;20033;-80
2021/12/16 08:13:34;;;;;;;30.17;16.55;;;;;;;;;;5015956;28;20036;-81
2021/12/16 08:16:01;;;;;;;35.70;20.88;;;;;;;;;;5017673;28;20085;-79
2021/12/16 08:18:27;;;;;;;36.35;20.35;;;;;;;;;;5016262;28;20036;-79
2021/12/16 08:20:52;;;;;;;46.10;24.63;;;;;;;;;;5032601;28;20408;-81
2021/12/16 08:23:17;;;;;;;75.20;36.30;;;;;;;;;;5032412;28;20034;-80
2021/12/16 08:25:43;;;;;;;41.63;22.15;;;;;;;;;;5017737;28;20018;-82
2021/12/16 08:28:08;;;;;;;36.53;20.40;;;;;;;;;;5062570;28;20025;-80
2021/12/16 08:30:36;;;;;;;27.38;17.55;;;;;;;;;;5072612;28;20017;-80
2021/12/16 08:33:06;;;;;;;31.77;18.08;;;;;;;;;;5057041;28;20020;-80
2021/12/16 08:35:32;;;;;;;25.13;15.77;;;;;;;;;;5057027;28;20127;-81
2021/12/16 08:37:57;;;;;;;27.38;15.35;;;;;;;;;;5056837;28;20111;-80
2021/12/16 08:40:23;;;;;;;26.55;15.98;;;;;;;;;;5072948;28;20024;-81
2021/12/16 08:42:48;;;;;;;22.42;12.82;;;;;;;;;;5056804;28;20028;-80
2021/12/16 08:45:15;;;;;;;27.65;15.93;;;;;;;;;;5055249;28;20029;-80
2021/12/16 08:47:42;;;;;;;25.52;14.68;;;;;;;;;;5035639;28;20029;-82
2021/12/16 08:50:08;;;;;;;28.52;18.20;;;;;;;;;;5035840;28;20025;-83
2021/12/16 08:52:33;;;;;;;29.85;17.77;;;;;;;;;;5043936;28;20028;-81
2021/12/16 08:55:00;;;;;;;22.95;14.23;;;;;;;;;;5043574;28;20072;-81
2021/12/16 08:57:26;;;;;;;29.80;19.00;;;;;;;;;;5039328;28;20479;-80
2021/12/16 08:59:51;;;;;;;29.05;17.00;;;;;;;;;;5038174;28;20024;-78
2021/12/16 09:02:17;;;;;;;25.58;17.58;;;;;;;;;;5057578;28;20474;-82
2021/12/16 09:04:43;;;;;;;26.75;15.95;;;;;;;;;;5037257;28;20056;-81
2021/12/16 09:07:09;;;;;;;31.80;19.58;;;;;;;;;;5038104;28;20505;-79
2021/12/16 09:09:35;;;;;;;31.30;21.05;;;;;;;;;;5055814;28;20048;-80
2021/12/16 09:12:09;;;;;;;36.13;21.85;;;;;;;;;;5056808;28;20035;-79
2021/12/16 09:14:35;;;;;;;26.48;16.25;;;;;;;;;;5056294;28;20055;-82
2021/12/16 09:17:01;;;;;;;29.77;17.98;;;;;;;;;;5037953;28;20021;-79
2021/12/16 09:19:27;;;;;;;29.80;17.85;;;;;;;;;;5056529;28;20028;-80
2021/12/16 09:21:53;;;;;;;26.33;15.52;;;;;;;;;;5034401;28;20087;-78
2021/12/16 09:24:18;;;;;;;35.22;22.02;;;;;;;;;;5035904;28;20021;-80
2021/12/16 09:26:44;;;;;;;30.65;16.33;;;;;;;;;;5037216;28;20052;-80
2021/12/16 09:29:10;;;;;;;25.65;14.32;;;;;;;;;;5036227;28;20075;-80
2021/12/16 09:31:35;;;;;;;29.80;17.52;;;;;;;;;;5043255;28;20375;-81
2021/12/16 09:34:07;;;;;;;28.70;16.90;;;;;;;;;;5055818;28;20438;-80
2021/12/16 09:36:33;;;;;;;29.63;17.88;;;;;;;;;;5047255;28;20384;-79
2021/12/16 09:38:58;;;;;;;26.02;14.02;;;;;;;;;;5022225;28;20078;-79
2021/12/16 09:41:25;;;;;;;30.38;17.95;;;;;;;;;;5017621;28;20024;-79
2021/12/16 09:43:52;;;;;;;21.80;14.05;;;;;;;;;;5054470;28;20036;-81
2021/12/16 09:46:19;;;;;;;27.40;16.98;;;;;;;;;;5055691;28;20048;-81
2021/12/16 09:48:45;;;;;;;24.63;14.68;;;;;;;;;;5038489;28;20029;-78
2021/12/16 09:51:16;;;;;;;34.40;19.98;;;;;;;;;;5043215;28;20388;-80
2021/12/16 09:53:42;;;;;;;37.63;23.38;;;;;;;;;;5027419;28;20068;-79
2021/12/16 09:56:09;;;;;;;28.65;17.92;;;;;;;;;;5044668;28;20048;-77
2021/12/16 09:58:37;;;;;;;33.90;21.63;;;;;;;;;;5053697;28;20044;-80
2021/12/16 10:01:03;;;;;;;23.83;14.93;;;;;;;;;;5053626;28;20464;-78
2021/12/16 10:03:28;;;;;;;24.40;16.00;;;;;;;;;;5054342;28;20498;-77
2021/12/16 10:05:55;;;;;;;24.88;14.10;;;;;;;;;;5053662;28;20040;-78
2021/12/16 10:08:21;;;;;;;26.40;16.13;;;;;;;;;;5037197;28;20090;-80
2021/12/16 10:10:46;;;;;;;23.27;13.75;;;;;;;;;;5037023;28;20456;-80
2021/12/16 10:13:19;;;;;;;19.52;12.32;;;;;;;;;;5063730;28;20069;-78
2021/12/16 10:18:17;;;;;;;34.20;20.63;;;;;;;;;;5034697;28;20036;-79
2021/12/16 10:20:52;;;;;;;38.42;19.42;;;;;;;;;;5054340;28;20103;-78
2021/12/16 10:23:20;;;;;;;29.45;17.02;;;;;;;;;;5055226;28;20656;-77
2021/12/16 10:25:47;;;;;;;21.70;13.63;;;;;;;;;;5054276;28;20020;-78
2021/12/16 10:28:13;;;;;;;20.40;13.65;;;;;;;;;;5036581;28;20044;-77
2021/12/16 10:30:53;;;;;;;21.23;13.23;;;;;;;;;;5037057;28;20789;-78
2021/12/16 10:33:18;;;;;;;;;;;;;;;;;;5055247;28;20367;-78
2021/12/16 10:35:47;;;;;;;21.97;12.30;;;;;;;;;;5036083;28;19905;-79
2021/12/16 10:38:14;;;;;;;28.08;14.95;;;;;;;;;;5054957;28;20871;-78
2021/12/16 10:40:44;;;;;;;27.88;17.08;;;;;;;;;;5036810;28;20082;-78
2021/12/16 10:43:14;;;;;;;23.10;13.65;;;;;;;;;;5054559;28;20062;-78
2021/12/16 10:45:39;;;;;;;;;;;;;;;;;;5055260;28;20127;-78
2021/12/16 10:48:10;;;;;;;26.00;15.50;;;;;;;;;;5036653;28;19988;-78
2021/12/16 10:50:50;;;;;;;25.20;16.10;;;;;;;;;;5036304;28;20249;-77
2021/12/16 10:53:18;;;;;;;28.30;16.27;;;;;;;;;;5036801;28;20036;-79
2021/12/16 10:55:59;;;;;;;24.83;14.65;;;;;;;;;;5055099;28;20025;-79
2021/12/16 10:59:00;;;;;;;21.10;13.07;;;;;;;;;;5054490;28;20128;-77
2021/12/16 11:01:31;;;;;;;33.50;19.08;;;;;;;;;;4992345;28;20197;-78
2021/12/16 11:03:56;;;;;;;31.08;16.73;;;;;;;;;;5028636;28;20052;-76
2021/12/16 11:06:26;;;;;;;45.45;23.23;;;;;;;;;;5054506;28;20032;-77
2021/12/16 11:08:51;;;;;;;48.20;24.75;;;;;;;;;;5054844;28;20114;-78
2021/12/16 11:11:25;;;;;;;40.15;20.67;;;;;;;;;;5054536;28;20071;-79
2021/12/16 11:13:51;;;;;;;32.47;17.05;;;;;;;;;;5036409;28;20059;-78
2021/12/16 11:16:29;;;;;;;38.17;20.90;;;;;;;;;;5037483;28;20410;-78
2021/12/16 11:18:54;;;;;;;30.70;17.17;;;;;;;;;;5054603;28;20071;-77
2021/12/16 11:21:19;;;;;;;42.08;22.92;;;;;;;;;;5055158;28;20537;-78
2021/12/16 11:23:45;;;;;;;28.17;15.95;;;;;;;;;;5036013;28;20040;-78
2021/12/16 11:26:18;;;;;;;28.65;16.52;;;;;;;;;;5036312;28;20035;-77
2021/12/16 11:28:44;;;;;;;33.38;19.98;;;;;;;;;;5054289;28;20021;-79
2021/12/16 11:31:11;;;;;;;50.90;26.85;;;;;;;;;;5053721;28;20529;-77
2021/12/16 11:33:42;;;;;;;48.28;28.17;;;;;;;;;;5055300;28;20123;-78
2021/12/16 11:36:11;;;;;;;29.50;18.17;;;;;;;;;;5054164;28;20022;-77
2021/12/16 11:38:48;;;;;;;27.30;16.38;;;;;;;;;;5054340;28;20112;-78
2021/12/16 11:41:22;;;;;;;33.00;18.02;;;;;;;;;;5054574;28;20025;-78
2021/12/16 11:43:49;;;;;;;28.05;15.30;;;;;;;;;;5054365;28;20117;-78
2021/12/16 11:46:17;;;;;;;27.83;17.48;;;;;;;;;;5055716;28;20024;-77
2021/12/16 11:48:42;;;;;;;29.83;17.85;;;;;;;;;;5058119;28;20573;-78
2021/12/16 11:51:10;;;;;;;28.98;16.08;;;;;;;;;;5039797;28;20024;-77
2021/12/16 11:53:38;;;;;;;33.17;18.33;;;;;;;;;;5039616;28;20119;-77
2021/12/16 11:56:04;;;;;;;31.98;19.38;;;;;;;;;;5037687;28;20484;-80
2021/12/16 11:58:30;;;;;;;32.28;18.00;;;;;;;;;;5057715;28;20079;-81
2021/12/16 12:00:58;;;;;;;38.35;22.38;;;;;;;;;;5057726;28;20028;-80
2021/12/16 12:03:31;;;;;;;35.30;20.75;;;;;;;;;;5057677;28;20509;-81
2021/12/16 12:05:57;;;;;;;30.83;19.15;;;;;;;;;;5040156;28;20115;-82
2021/12/16 12:08:26;;;;;;;27.90;15.57;;;;;;;;;;5041243;28;20096;-81
2021/12/16 12:10:59;;;;;;;49.08;29.45;;;;;;;;;;5019576;28;20054;-81
2021/12/16 12:13:27;;;;;;;36.53;21.00;;;;;;;;;;5018458;28;20788;-79
2021/12/16 12:16:04;;;;;;;48.22;24.23;;;;;;;;;;5019699;28;20186;-79
2021/12/16 12:18:30;;;;;;;36.30;22.65;;;;;;;;;;5019333;28;20033;-79
2021/12/16 12:21:13;;;;;;;34.95;19.98;;;;;;;;;;5037039;28;20525;-80
2021/12/16 12:23:39;;;;;;;40.53;21.67;;;;;;;;;;5019178;28;20489;-80
2021/12/16 12:26:05;;;;;;;30.40;17.88;;;;;;;;;;5019122;28;20116;-79
2021/12/16 12:28:30;;;;;;;28.20;16.42;;;;;;;;;;5036774;28;20384;-81
2021/12/16 12:30:56;;;;;;;27.45;16.13;;;;;;;;;;5036800;28;20020;-79
2021/12/16 12:33:22;;;;;;;31.35;16.27;;;;;;;;;;5018920;28;20073;-83
2021/12/16 12:35:47;;;;;;;36.38;21.48;;;;;;;;;;5036726;28;20024;-79
2021/12/16 12:38:13;;;;;;;33.60;18.38;;;;;;;;;;5037311;28;20503;-80
2021/12/16 12:40:39;;;;;;;23.98;14.52;;;;;;;;;;5018479;28;20484;-82
2021/12/16 12:43:06;;;;;;;34.72;19.33;;;;;;;;;;5018703;28;20444;-82
2021/12/16 12:45:35;;;;;;;32.60;18.25;;;;;;;;;;5036662;28;20040;-80
2021/12/16 12:48:02;;;;;;;43.95;23.25;;;;;;;;;;5037426;28;20025;-81
2021/12/16 12:50:33;;;;;;;55.40;30.70;;;;;;;;;;5018775;28;20457;-84
2021/12/16 12:53:10;;;;;;;41.90;24.25;;;;;;;;;;5019001;28;20032;-82
2021/12/16 12:55:36;;;;;;;27.95;16.65;;;;;;;;;;5017994;28;20349;-79
2021/12/16 12:58:16;;;;;;;27.67;16.65;;;;;;;;;;5030509;28;20060;-80
2021/12/16 13:00:56;;;;;;;64.75;35.80;;;;;;;;;;5071627;28;20063;-81
2021/12/16 13:03:30;;;;;;;63.80;36.30;;;;;;;;;;5054724;28;20082;-80
2021/12/16 13:06:09;;;;;;;70.90;36.45;;;;;;;;;;5056555;28;20036;-80
2021/12/16 13:08:36;;;;;;;86.30;43.30;;;;;;;;;;5054268;28;20020;-83
2021/12/16 13:11:16;;;;;;;69.20;33.97;;;;;;;;;;5056181;28;20025;-80
2021/12/16 13:14:07;;;;;;;52.35;26.50;;;;;;;;;;5055693;28;20040;-78
2021/12/16 13:27:46;;;;;;;35.90;19.63;;;;;;;;;;5016125;28;20075;-80
2021/12/16 13:32:48;;;;;;;46.85;25.90;;;;;;;;;;5016092;28;20516;-80
2021/12/16 13:37:50;;;;;;;28.88;16.77;;;;;;;;;;5015602;28;20017;-80
2021/12/16 13:40:23;;;;;;;46.03;26.27;;;;;;;;;;5014411;28;20025;-80
2021/12/16 13:43:00;;;;;;;64.70;35.47;;;;;;;;;;5014602;28;20342;-80
2021/12/16 13:45:30;;;;;;;38.55;20.67;;;;;;;;;;5013818;28;20033;-80
2021/12/16 14:07:26;;;;;;;47.13;27.30;;;;;;;;;;5055625;28;20491;-80
2021/12/16 14:10:02;;;;;;;49.40;29.63;;;;;;;;;;5036682;28;20928;-82
2021/12/16 14:13:53;;;;;;;61.25;32.80;;;;;;;;;;5036487;28;20025;-80
2021/12/16 14:15:27;;;;;;;51.28;27.65;;;;;;;;;;5052321;28;20042;-81
2021/12/16 14:18:08;;;;;;;47.25;26.45;;;;;;;;;;5036863;28;20028;-80
2021/12/16 14:24:30;;;;;;;55.55;32.05;;;;;;;;;;5055110;28;20528;-78
2021/12/16 14:31:12;;;;;;;86.22;42.67;;;;;;;;;;5053983;28;20028;-78
2021/12/16 14:34:58;;;;;;;72.43;44.65;;;;;;;;;;5054280;28;20396;-77
2021/12/16 14:37:34;;;;;;;74.47;41.97;;;;;;;;;;5053933;28;20021;-82
2021/12/16 14:40:15;;;;;;;92.60;52.92;;;;;;;;;;5036826;28;20016;-79
2021/12/16 14:43:03;;;;;;;89.47;44.90;;;;;;;;;;5055551;28;20096;-81
2021/12/16 14:45:43;;;;;;;126.38;68.22;;;;;;;;;;5055191;28;20035;-80
2021/12/16 14:50:43;;;;;;;113.68;67.53;;;;;;;;;;5054911;28;20028;-82
2021/12/16 14:53:20;;;;;;;66.70;40.75;;;;;;;;;;5043457;28;20056;-81
2021/12/16 14:55:46;;;;;;;66.20;41.80;;;;;;;;;;5053538;28;20134;-82
2021/12/16 14:58:11;;;;;;;71.13;41.92;;;;;;;;;;5041521;28;20489;-80
2021/12/16 15:00:45;;;;;;;45.53;25.77;;;;;;;;;;5057961;28;20025;-80
2021/12/16 15:03:20;;;;;;;62.03;36.50;;;;;;;;;;5051155;28;20055;-79
2021/12/16 15:05:50;;;;;;;48.92;30.70;;;;;;;;;;5041130;28;20053;-77
2021/12/16 15:08:18;;;;;;;55.17;34.65;;;;;;;;;;5036461;28;20028;-80
2021/12/16 15:10:44;;;;;;;77.22;44.53;;;;;;;;;;5055884;28;20020;-81
2021/12/16 15:13:19;;;;;;;85.30;45.78;;;;;;;;;;5055399;28;20056;-81
2021/12/16 15:38:09;;;;;;;72.47;47.23;;;;;;;;;;5056978;28;20679;-79
2021/12/16 15:43:01;;;;;;;54.05;34.30;;;;;;;;;;5049974;28;20159;-78
2021/12/16 15:45:30;;;;;;;58.60;39.78;;;;;;;;;;5062423;28;20128;-79
2021/12/16 15:48:11;;;;;;;46.63;31.38;;;;;;;;;;5047617;28;20016;-79
2021/12/16 15:50:36;;;;;;;62.33;38.97;;;;;;;;;;5055831;28;20475;-79
2021/12/16 15:53:03;;;;;;;61.10;39.10;;;;;;;;;;5052598;28;20070;-80
2021/12/16 15:55:33;;;;;;;79.88;47.92;;;;;;;;;;5058827;28;20051;-80
2021/12/16 15:58:00;;;;;;;82.45;45.92;;;;;;;;;;5069780;28;20479;-79
2021/12/16 16:00:25;;;;;;;63.97;37.08;;;;;;;;;;5058713;28;20029;-81
2021/12/16 16:02:54;;;;;;;53.28;32.72;;;;;;;;;;5056004;28;20517;-78
2021/12/16 16:05:20;;;;;;;58.67;34.63;;;;;;;;;;5057213;28;20055;-81
2021/12/16 16:07:45;;;;;;;80.97;45.45;;;;;;;;;;5057166;28;20056;-80
2021/12/16 16:10:15;;;;;;;65.50;39.60;;;;;;;;;;5056687;28;20160;-80
2021/12/16 16:12:40;;;;;;;67.82;35.45;;;;;;;;;;5041903;28;20047;-79
2021/12/16 16:15:18;;;;;;;66.28;34.03;;;;;;;;;;5055874;28;20375;-79
2021/12/16 16:17:54;;;;;;;61.30;33.42;;;;;;;;;;5040951;28;20036;-79
2021/12/16 16:20:20;;;;;;;77.45;42.15;;;;;;;;;;5047437;28;20016;-80
2021/12/16 16:22:46;;;;;;;76.32;41.33;;;;;;;;;;5056949;28;20016;-79
2021/12/16 16:25:12;;;;;;;48.63;28.58;;;;;;;;;;5057986;28;20033;-79
2021/12/16 16:27:37;;;;;;;48.92;26.67;;;;;;;;;;5058016;28;20111;-79
2021/12/16 16:30:05;;;;;;;47.72;30.38;;;;;;;;;;5056618;28;20021;-78
2021/12/16 16:32:50;;;;;;;56.22;32.25;;;;;;;;;;5054506;28;20025;-80
2021/12/16 16:35:16;;;;;;;60.22;39.38;;;;;;;;;;5056274;28;20024;-78
2021/12/16 16:37:41;;;;;;;74.68;42.83;;;;;;;;;;5055667;28;20110;-79
2021/12/16 16:40:10;;;;;;;60.13;36.35;;;;;;;;;;5055506;28;20048;-80
2021/12/16 16:42:38;;;;;;;78.93;52.08;;;;;;;;;;5057511;28;20050;-79
2021/12/16 16:45:04;;;;;;;77.63;51.38;;;;;;;;;;5055823;28;20493;-79
2021/12/16 16:47:36;;;;;;;80.47;52.17;;;;;;;;;;5038507;28;20028;-79
2021/12/16 16:50:05;;;;;;;76.93;49.42;;;;;;;;;;5056870;28;20530;-78
2021/12/16 16:52:35;;;;;;;58.35;36.50;;;;;;;;;;5056235;28;20074;-79
2021/12/16 16:55:04;;;;;;;44.72;28.52;;;;;;;;;;5056134;28;20100;-78
2021/12/16 16:57:36;;;;;;;41.42;26.42;;;;;;;;;;5034221;28;20496;-78
2021/12/16 17:00:07;;;;;;;42.17;26.90;;;;;;;;;;5036542;28;20112;-80
2021/12/16 17:02:43;;;;;;;47.00;29.10;;;;;;;;;;5036130;28;20021;-79
2021/12/16 17:05:21;;;;;;;39.97;27.17;;;;;;;;;;5036303;28;20030;-78
2021/12/16 17:07:46;;;;;;;56.65;34.75;;;;;;;;;;5036589;28;20028;-78
2021/12/16 17:10:23;;;;;;;54.97;34.00;;;;;;;;;;5034760;28;20017;-79
2021/12/16 17:12:48;;;;;;;75.40;47.47;;;;;;;;;;5037395;28;20487;-79
2021/12/16 17:15:32;;;;;;;57.20;30.85;;;;;;;;;;5034233;28;20037;-78
2021/12/16 17:17:58;;;;;;;62.83;37.00;;;;;;;;;;5035894;28;20032;-78
2021/12/16 17:20:24;;;;;;;57.47;34.03;;;;;;;;;;5034897;28;20025;-78
2021/12/16 17:22:52;;;;;;;76.60;46.85;;;;;;;;;;5034961;28;20504;-78
2021/12/16 17:25:19;;;;;;;65.65;40.53;;;;;;;;;;5037034;28;20549;-80
2021/12/16 17:27:49;;;;;;;53.38;34.92;;;;;;;;;;5034800;28;20063;-79
2021/12/16 17:30:23;;;;;;;59.97;38.80;;;;;;;;;;5035751;28;20048;-78
2021/12/16 17:32:50;;;;;;;72.13;39.40;;;;;;;;;;5033938;28;21066;-80
2021/12/16 17:35:18;;;;;;;114.35;56.17;;;;;;;;;;5034178;28;20033;-79
2021/12/16 17:37:46;;;;;;;86.38;42.83;;;;;;;;;;5034295;28;20029;-79
2021/12/16 17:40:19;;;;;;;63.38;34.42;;;;;;;;;;5035183;28;20361;-80
2021/12/16 17:42:50;;;;;;;241.38;120.68;;;;;;;;;;5034214;28;20028;-78
2021/12/16 17:45:18;;;;;;;203.82;104.18;;;;;;;;;;5035337;28;20468;-78
2021/12/16 17:47:44;;;;;;;261.17;126.88;;;;;;;;;;5034522;28;20039;-82
2021/12/16 17:50:15;;;;;;;261.73;121.35;;;;;;;;;;5034590;28;20024;-78
2021/12/16 17:52:40;;;;;;;147.55;73.70;;;;;;;;;;5033788;28;20052;-81
2021/12/16 17:55:08;;;;;;;202.18;89.15;;;;;;;;;;5034138;28;20033;-82
2021/12/16 17:57:35;;;;;;;170.20;87.35;;;;;;;;;;5036891;28;20508;-79
2021/12/16 18:00:04;;;;;;;289.08;122.85;;;;;;;;;;5037205;28;20028;-79
2021/12/16 18:02:29;;;;;;;280.35;119.75;;;;;;;;;;5037621;28;20020;-77
2021/12/16 18:04:57;;;;;;;131.27;63.20;;;;;;;;;;5055514;28;20051;-78
2021/12/16 18:07:23;;;;;;;75.10;40.67;;;;;;;;;;5036785;28;20119;-77